Time;durP1;ratioP1;P1;durP2;ratioP2;P2;SDS_P1;SDS_P2;PMS_P1;PMS_P2;Temp;Humidity;BMP_temperature;BMP_pressure;BME280_temperature;BME280_humidity;BME280_pressure;Samples;Min_cycle;Max_cycle;Signal;HPM_P1;HPM_P2
2022/03/16 00:01:47;;;;;;;37.92;26.88;;;;;;;3.02;91.98;102356.38;5054411;28;20108;-59
2022/03/16 00:04:13;;;;;;;40.22;27.70;;;;;;;3.04;92.77;102369.81;5054003;28;20032;-59
2022/03/16 00:06:38;;;;;;;37.72;27.27;;;;;;;3.03;92.14;102360.81;5054384;28;20021;-58
2022/03/16 00:09:04;;;;;;;38.65;27.58;;;;;;;3.02;92.51;102361.84;5054258;28;20047;-58
2022/03/16 00:11:29;;;;;;;38.22;27.20;;;;;;;2.97;91.90;102361.69;5053094;28;20052;-58
2022/03/16 00:13:55;;;;;;;38.80;27.42;;;;;;;2.87;91.73;102361.31;5054471;28;20021;-57
2022/03/16 00:16:20;;;;;;;38.08;27.15;;;;;;;2.79;92.59;102362.38;5053726;28;20076;-58
2022/03/16 00:18:45;;;;;;;37.45;25.98;;;;;;;2.72;92.12;102362.41;5054032;28;20041;-58
2022/03/16 00:21:11;;;;;;;36.08;26.13;;;;;;;2.70;91.82;102359.03;5053864;28;20456;-58
2022/03/16 00:23:36;;;;;;;39.08;27.73;;;;;;;2.71;91.94;102368.09;5053007;28;20024;-58
2022/03/16 00:26:03;;;;;;;42.90;29.05;;;;;;;2.72;93.05;102365.13;5053919;28;20033;-57
2022/03/16 00:28:28;;;;;;;38.97;28.80;;;;;;;2.74;93.61;102364.94;5053792;28;20464;-57
2022/03/16 00:30:53;;;;;;;43.25;29.60;;;;;;;2.71;93.84;102368.09;5053410;28;20033;-58
2022/03/16 00:33:18;;;;;;;38.17;27.90;;;;;;;2.70;93.64;102366.41;5053596;28;20029;-58
2022/03/16 00:35:44;;;;;;;38.28;27.50;;;;;;;2.68;93.38;102360.31;5053601;28;20151;-58
2022/03/16 00:38:09;;;;;;;38.38;27.77;;;;;;;2.64;93.85;102365.38;5053561;28;20036;-59
2022/03/16 00:40:36;;;;;;;41.53;27.55;;;;;;;2.67;93.32;102361.38;5053257;28;20151;-57
2022/03/16 00:43:01;;;;;;;41.30;28.30;;;;;;;2.68;93.85;102365.78;5053197;28;20040;-59
2022/03/16 00:45:27;;;;;;;39.47;27.90;;;;;;;2.61;93.93;102374.00;5054238;28;20025;-57
2022/03/16 00:47:52;;;;;;;39.95;28.90;;;;;;;2.56;93.55;102369.16;5053514;28;20051;-59
2022/03/16 00:50:18;;;;;;;39.28;28.20;;;;;;;2.57;93.87;102381.78;5054242;28;20067;-57
2022/03/16 00:52:44;;;;;;;37.60;27.83;;;;;;;2.57;93.91;102375.50;5052962;28;20048;-58
2022/03/16 00:55:09;;;;;;;38.80;27.67;;;;;;;2.55;93.86;102378.41;5051709;28;20461;-57
2022/03/16 00:57:35;;;;;;;38.08;27.52;;;;;;;2.54;94.19;102368.56;5053485;28;20025;-58
2022/03/16 01:00:01;;;;;;;38.35;27.52;;;;;;;2.50;94.43;102367.31;5051962;28;20135;-58
2022/03/16 01:02:26;;;;;;;40.28;27.17;;;;;;;2.47;94.19;102365.84;5053523;28;20067;-58
2022/03/16 01:04:52;;;;;;;39.88;27.55;;;;;;;2.44;94.55;102363.53;5053536;28;20205;-61
2022/03/16 01:07:18;;;;;;;41.75;28.63;;;;;;;2.40;94.33;102361.44;5052079;28;20447;-57
2022/03/16 01:09:44;;;;;;;39.13;27.25;;;;;;;2.38;94.63;102361.66;5053479;28;20029;-59
2022/03/16 01:12:10;;;;;;;41.58;28.83;;;;;;;2.38;94.44;102363.53;5051574;28;20071;-60
2022/03/16 01:14:36;;;;;;;40.58;28.52;;;;;;;2.39;95.22;102365.22;5053479;28;20083;-59
2022/03/16 01:17:04;;;;;;;43.50;29.40;;;;;;;2.33;95.47;102358.72;5053292;28;20037;-57
2022/03/16 01:19:31;;;;;;;40.90;28.42;;;;;;;2.27;94.61;102360.41;5051999;28;20113;-58
2022/03/16 01:21:57;;;;;;;42.22;27.98;;;;;;;2.21;95.00;102352.25;5051736;28;20021;-56
2022/03/16 01:24:22;;;;;;;41.22;28.63;;;;;;;2.17;95.22;102349.13;5053006;28;20131;-59
2022/03/16 01:26:47;;;;;;;43.25;29.85;;;;;;;2.21;95.02;102355.00;5051076;28;20032;-58
2022/03/16 01:29:12;;;;;;;43.83;29.95;;;;;;;2.22;96.00;102351.22;5052648;28;20025;-59
2022/03/16 01:31:38;;;;;;;44.17;29.75;;;;;;;2.26;96.23;102350.56;5052525;28;20025;-58
2022/03/16 01:34:07;;;;;;;43.95;30.23;;;;;;;2.30;96.60;102340.06;5052857;28;20025;-59
2022/03/16 01:36:32;;;;;;;44.55;29.67;;;;;;;2.33;96.90;102342.34;5053186;28;20182;-57
2022/03/16 01:39:00;;;;;;;43.90;30.45;;;;;;;2.36;96.68;102344.66;5052870;28;20025;-58
2022/03/16 01:41:26;;;;;;;42.60;29.73;;;;;;;2.38;97.05;102344.44;5051679;28;20068;-59
2022/03/16 01:43:56;;;;;;;42.70;30.42;;;;;;;2.41;97.64;102333.09;5052251;28;20075;-59
2022/03/16 01:46:21;;;;;;;42.72;30.10;;;;;;;2.41;96.98;102330.34;5050592;28;20028;-59
2022/03/16 01:48:47;;;;;;;42.45;30.08;;;;;;;2.45;96.51;102331.63;5052647;28;20041;-59
2022/03/16 01:51:13;;;;;;;43.38;30.55;;;;;;;2.47;97.05;102329.47;5051925;28;20049;-59
2022/03/16 01:53:42;;;;;;;44.33;30.73;;;;;;;2.49;98.06;102328.22;5051285;28;20025;-59
2022/03/16 01:56:08;;;;;;;43.22;30.50;;;;;;;2.49;97.47;102328.22;5052734;28;20037;-60
2022/03/16 01:58:37;;;;;;;41.28;30.25;;;;;;;2.53;98.29;102319.59;5052641;28;20109;-59
2022/03/16 02:01:03;;;;;;;41.53;30.15;;;;;;;2.54;98.33;102313.94;5052114;28;20021;-59
2022/03/16 02:03:31;;;;;;;41.30;29.65;;;;;;;2.56;98.39;102309.06;5051018;28;20025;-60
2022/03/16 02:05:57;;;;;;;41.45;29.83;;;;;;;2.61;98.28;102313.88;5052580;28;20099;-59
2022/03/16 02:08:22;;;;;;;42.33;30.08;;;;;;;2.64;97.94;102316.19;5051935;28;20457;-59
2022/03/16 02:10:47;;;;;;;43.97;31.75;;;;;;;2.67;98.30;102301.25;5051824;28;20056;-58
2022/03/16 02:13:16;;;;;;;45.50;30.90;;;;;;;2.68;98.40;102300.19;5052818;28;20021;-57
2022/03/16 02:15:41;;;;;;;41.80;29.73;;;;;;;2.67;98.86;102291.16;5050722;28;20033;-58
2022/03/16 02:18:07;;;;;;;43.17;32.00;;;;;;;2.68;98.30;102292.84;5052111;28;20025;-60
2022/03/16 02:20:32;;;;;;;42.53;31.50;;;;;;;2.72;98.60;102298.72;5052558;28;20033;-57
2022/03/16 02:23:06;;;;;;;45.85;31.13;;;;;;;2.73;98.44;102292.19;5052682;28;20025;-58
2022/03/16 02:25:32;;;;;;;44.05;31.30;;;;;;;2.75;99.01;102290.06;5051080;28;20036;-58
2022/03/16 02:27:58;;;;;;;44.20;32.05;;;;;;;2.76;99.08;102294.47;5050547;28;20527;-59
2022/03/16 02:30:26;;;;;;;42.80;30.88;;;;;;;2.67;98.97;102280.25;5051966;28;20067;-59
2022/03/16 02:32:51;;;;;;;41.25;31.13;;;;;;;2.74;98.60;102286.50;5051869;28;20028;-59
2022/03/16 02:35:17;;;;;;;44.58;31.77;;;;;;;2.73;99.14;102287.56;5052255;28;20021;-59
2022/03/16 02:37:42;;;;;;;40.72;30.77;;;;;;;2.72;98.08;102288.59;5052089;28;20453;-59
2022/03/16 02:40:11;;;;;;;42.65;31.20;;;;;;;2.64;99.00;102273.31;5050717;28;20024;-59
2022/03/16 02:42:37;;;;;;;44.05;30.55;;;;;;;2.69;98.96;102285.47;5052696;28;20029;-60
2022/03/16 02:45:04;;;;;;;42.70;30.60;;;;;;;2.67;98.99;102280.25;5051095;28;20373;-57
2022/03/16 02:47:29;;;;;;;43.30;31.85;;;;;;;2.65;99.62;102280.44;5052221;28;20163;-59
2022/03/16 02:49:55;;;;;;;41.83;29.50;;;;;;;2.65;98.70;102291.38;5051898;28;20068;-61
2022/03/16 02:52:22;;;;;;;44.75;29.52;;;;;;;2.62;98.47;102288.22;5051928;28;20029;-59
2022/03/16 02:54:47;;;;;;;42.50;29.40;;;;;;;2.64;98.08;102286.13;5051571;28;20036;-59
2022/03/16 02:57:16;;;;;;;40.22;28.75;;;;;;;2.64;98.24;102297.91;5052859;28;20485;-59
2022/03/16 02:59:42;;;;;;;42.10;29.10;;;;;;;2.65;98.92;102290.53;5054039;28;20477;-59
2022/03/16 03:02:07;;;;;;;42.17;29.65;;;;;;;2.61;99.03;102283.81;5054807;28;20029;-60
2022/03/16 03:04:32;;;;;;;42.28;30.25;;;;;;;2.60;98.29;102291.19;5054864;28;20513;-60
2022/03/16 03:06:58;;;;;;;41.65;29.08;;;;;;;2.57;98.68;102286.16;5055906;28;20021;-59
2022/03/16 03:09:23;;;;;;;40.20;28.52;;;;;;;2.57;97.93;102288.06;5054787;28;20352;-60
2022/03/16 03:11:48;;;;;;;43.38;28.83;;;;;;;2.57;98.56;102286.16;5068348;22;20299;-49
2022/03/16 03:14:14;;;;;;;40.85;28.52;;;;;;;2.55;98.29;102287.44;5054315;28;20139;-50
2022/03/16 03:16:39;;;;;;;39.58;28.58;;;;;;;2.53;98.82;102284.94;5054388;28;20056;-50
2022/03/16 03:19:04;;;;;;;40.50;28.48;;;;;;;2.49;98.30;102287.25;5054529;28;20028;-48
2022/03/16 03:21:29;;;;;;;42.58;29.63;;;;;;;2.46;98.27;102279.47;5053977;28;20021;-51
2022/03/16 03:23:55;;;;;;;41.00;28.45;;;;;;;2.44;98.13;102275.31;5054158;28;20036;-53
2022/03/16 03:26:20;;;;;;;41.40;27.85;;;;;;;2.41;97.98;102283.91;5054344;28;20025;-50
2022/03/16 03:28:45;;;;;;;39.80;28.48;;;;;;;2.40;98.63;102282.22;5054522;28;20029;-52
2022/03/16 03:31:10;;;;;;;42.22;28.95;;;;;;;2.38;98.30;102281.59;5054676;28;20113;-50
2022/03/16 03:33:36;;;;;;;41.08;28.27;;;;;;;2.36;99.37;102283.75;5054715;28;20029;-52
2022/03/16 03:36:01;;;;;;;40.40;27.13;;;;;;;2.36;98.89;102287.28;5054948;28;20082;-51
2022/03/16 03:38:26;;;;;;;39.80;27.17;;;;;;;2.36;98.37;102283.75;5054760;28;20107;-52
2022/03/16 03:40:52;;;;;;;41.75;28.85;;;;;;;2.36;99.05;102284.56;5054026;28;20048;-52
2022/03/16 03:43:17;;;;;;;39.53;27.35;;;;;;;2.32;99.03;102291.50;5053926;28;20025;-53
2022/03/16 03:45:42;;;;;;;40.80;28.70;;;;;;;2.31;98.58;102298.03;5054084;28;20043;-52
2022/03/16 03:48:07;;;;;;;39.67;28.77;;;;;;;2.29;98.65;102294.69;5054393;28;20171;-54
2022/03/16 03:50:33;;;;;;;42.33;29.20;;;;;;;2.25;99.39;102297.00;5054963;28;20025;-53
2022/03/16 03:52:58;;;;;;;40.45;27.65;;;;;;;2.26;98.69;102284.16;5054385;28;20028;-51
2022/03/16 03:55:23;;;;;;;40.70;28.25;;;;;;;2.25;98.83;102282.50;5054358;28;20504;-54
2022/03/16 03:57:49;;;;;;;43.00;29.65;;;;;;;2.27;99.51;102288.59;5054307;28;20024;-50
2022/03/16 04:00:14;;;;;;;42.30;29.02;;;;;;;2.26;99.29;102284.16;5054109;28;20029;-53
2022/03/16 04:02:47;;;;;;;40.25;28.40;;;;;;;2.25;98.83;102279.75;5052650;28;20388;-52
2022/03/16 04:05:12;;;;;;;40.78;29.17;;;;;;;2.28;98.78;102288.34;5054293;28;20056;-51
2022/03/16 04:07:37;;;;;;;45.42;29.52;;;;;;;2.28;99.57;102299.28;5054626;28;20098;-49
2022/03/16 04:10:03;;;;;;;41.47;28.92;;;;;;;2.29;99.11;102297.41;5053498;28;20409;-52
2022/03/16 04:12:28;;;;;;;43.25;29.80;;;;;;;2.30;99.02;102296.34;5054607;28;20033;-51
2022/03/16 04:14:54;;;;;;;42.92;29.80;;;;;;;2.29;99.06;102298.22;5053448;28;20219;-53
2022/03/16 04:17:19;;;;;;;45.85;31.73;;;;;;;2.30;98.99;102283.53;5054160;28;20029;-50
2022/03/16 04:19:44;;;;;;;43.28;31.30;;;;;;;2.29;99.96;102290.03;5054158;28;20066;-50
2022/03/16 04:22:11;;;;;;;45.88;31.35;;;;;;;2.26;99.61;102282.28;5053906;28;20053;-52
2022/03/16 04:24:37;;;;;;;44.72;31.02;;;;;;;2.29;99.77;102289.22;5054310;28;20388;-50
2022/03/16 04:27:02;;;;;;;44.55;30.25;;;;;;;2.30;98.98;102299.09;5054279;28;20058;-49
2022/03/16 04:29:27;;;;;;;44.92;30.48;;;;;;;2.30;100.00;102296.34;5052275;28;20047;-49
2022/03/16 04:31:53;;;;;;;44.78;31.10;;;;;;;2.31;99.61;102298.03;5053779;28;20032;-53
2022/03/16 04:34:18;;;;;;;45.70;31.27;;;;;;;2.27;99.96;102288.59;5053241;28;20033;-50
2022/03/16 04:36:43;;;;;;;44.00;30.25;;;;;;;2.26;100.00;102295.09;5053137;28;20025;-49
2022/03/16 04:39:08;;;;;;;45.65;30.98;;;;;;;2.22;100.00;102281.03;5053507;28;20027;-49
2022/03/16 04:41:34;;;;;;;44.88;30.70;;;;;;;2.23;100.00;102290.06;5053628;28;20025;-50
2022/03/16 04:43:59;;;;;;;43.47;30.02;;;;;;;2.22;100.00;102289.22;5053543;28;20564;-50
2022/03/16 04:46:24;;;;;;;42.58;31.30;;;;;;;2.24;100.00;102280.81;5053436;28;20112;-48
2022/03/16 04:48:49;;;;;;;45.30;31.08;;;;;;;2.21;99.78;102282.09;5053233;28;20048;-48
2022/03/16 04:51:15;;;;;;;44.70;31.23;;;;;;;2.20;100.00;102277.66;5053454;28;20090;-50
2022/03/16 04:53:40;;;;;;;45.90;32.03;;;;;;;2.21;99.67;102270.34;5053397;28;20052;-47
2022/03/16 04:56:05;;;;;;;43.80;30.80;;;;;;;2.16;99.76;102281.91;5053126;28;20064;-50
2022/03/16 04:58:31;;;;;;;45.00;32.42;;;;;;;2.15;99.67;102282.94;5053336;28;20079;-50
2022/03/16 05:00:57;;;;;;;48.08;32.45;;;;;;;2.10;100.00;102278.13;5051896;28;20376;-52
2022/03/16 05:03:22;;;;;;;45.78;32.65;;;;;;;2.09;99.96;102281.91;5053117;28;20104;-53
2022/03/16 05:05:48;;;;;;;45.00;31.33;;;;;;;2.09;100.00;102286.53;5053682;28;20534;-50
2022/03/16 05:08:13;;;;;;;45.40;32.55;;;;;;;2.11;100.00;102281.69;5052852;28;20025;-54
2022/03/16 05:10:38;;;;;;;46.00;32.25;;;;;;;2.13;100.00;102276.88;5053218;28;20458;-51
2022/03/16 05:13:04;;;;;;;45.03;32.60;;;;;;;2.14;100.00;102279.38;5052926;28;20098;-54
2022/03/16 05:15:29;;;;;;;45.90;31.80;;;;;;;2.13;100.00;102274.97;5052894;28;20037;-53
2022/03/16 05:17:54;;;;;;;47.15;33.25;;;;;;;2.14;100.00;102282.09;5052848;28;20334;-54
2022/03/16 05:20:20;;;;;;;46.50;32.92;;;;;;;2.13;100.00;102276.88;5052371;28;20396;-53
2022/03/16 05:22:47;;;;;;;47.47;32.22;;;;;;;2.11;99.78;102281.69;5051976;28;20048;-52
2022/03/16 05:25:15;;;;;;;47.10;33.30;;;;;;;2.14;100.00;102290.28;5052862;28;20028;-51
2022/03/16 05:27:41;;;;;;;49.58;33.17;;;;;;;2.13;100.00;102288.59;5052472;28;20025;-53
2022/03/16 05:30:08;;;;;;;44.75;32.22;;;;;;;2.15;100.00;102275.59;5052785;28;20484;-50
2022/03/16 05:32:33;;;;;;;46.88;32.30;;;;;;;2.16;100.00;102274.53;5052990;28;20029;-53
2022/03/16 05:34:58;;;;;;;48.90;33.63;;;;;;;2.17;100.00;102268.03;5052411;28;20021;-53
2022/03/16 05:37:23;;;;;;;46.78;31.92;;;;;;;2.19;100.00;102270.53;5052669;28;20025;-51
2022/03/16 05:39:49;;;;;;;45.17;31.70;;;;;;;2.21;100.00;102270.34;5052225;28;20025;-52
2022/03/16 05:42:14;;;;;;;45.75;30.92;;;;;;;2.22;100.00;102269.28;5052606;28;20480;-50
2022/03/16 05:44:39;;;;;;;43.40;29.48;;;;;;;2.25;100.00;102266.97;5052517;28;20103;-50
2022/03/16 05:47:05;;;;;;;44.33;30.00;;;;;;;2.26;100.00;102268.66;5052768;28;20366;-52
2022/03/16 05:49:30;;;;;;;45.13;30.45;;;;;;;2.25;100.00;102275.16;5052237;28;20025;-51
2022/03/16 05:51:55;;;;;;;43.38;30.08;;;;;;;2.24;100.00;102258.97;5051902;28;20469;-52
2022/03/16 05:54:21;;;;;;;41.03;29.20;;;;;;;2.30;100.00;102264.41;5052167;28;20040;-53
2022/03/16 05:56:46;;;;;;;41.00;27.60;;;;;;;2.32;99.85;102267.78;5052356;28;20131;-53
2022/03/16 05:59:11;;;;;;;39.15;26.45;;;;;;;2.36;100.00;102264.63;5052091;28;20404;-53
2022/03/16 06:01:36;;;;;;;39.38;27.33;;;;;;;2.38;100.00;102274.25;5052216;28;20024;-53
2022/03/16 06:04:02;;;;;;;40.55;26.40;;;;;;;2.41;100.00;102273.81;5050310;28;20540;-53
2022/03/16 06:06:29;;;;;;;37.78;25.92;;;;;;;2.45;99.84;102277.81;5051809;28;20028;-51
2022/03/16 06:08:54;;;;;;;36.92;23.92;;;;;;;2.52;99.53;102282.38;5052294;28;20070;-50
2022/03/16 06:11:20;;;;;;;36.40;23.92;;;;;;;2.54;99.41;102278.41;5052385;28;20044;-53
2022/03/16 06:13:45;;;;;;;34.22;23.15;;;;;;;2.56;100.00;102281.75;5052442;28;20040;-50
2022/03/16 06:16:10;;;;;;;35.25;23.70;;;;;;;2.63;99.28;102279.84;5052842;28;20021;-54
2022/03/16 06:18:35;;;;;;;37.03;24.17;;;;;;;2.68;99.34;102275.59;5052320;28;20487;-54
2022/03/16 06:21:01;;;;;;;34.92;22.95;;;;;;;2.74;99.32;102280.22;5052568;28;20025;-53
2022/03/16 06:23:26;;;;;;;34.78;22.75;;;;;;;2.79;99.01;102288.59;5052555;28;20025;-52
2022/03/16 06:25:51;;;;;;;34.10;22.55;;;;;;;2.86;98.19;102292.13;5052156;28;20374;-53
2022/03/16 06:28:17;;;;;;;33.35;22.15;;;;;;;2.90;98.66;102290.63;5052648;28;20029;-52
2022/03/16 06:30:42;;;;;;;32.80;21.40;;;;;;;2.98;99.01;102297.72;5051588;28;20103;-49
2022/03/16 06:33:07;;;;;;;31.92;21.73;;;;;;;3.06;98.60;102286.56;5054124;28;20469;-53
2022/03/16 06:35:33;;;;;;;34.05;21.73;;;;;;;3.13;98.44;102289.22;5055380;28;20021;-53
2022/03/16 06:37:58;;;;;;;31.52;20.55;;;;;;;3.21;98.05;102288.94;5056327;28;20037;-52
2022/03/16 06:40:23;;;;;;;30.80;19.55;;;;;;;3.28;97.93;102287.03;5056052;28;20043;-53
2022/03/16 06:42:55;;;;;;;32.38;20.95;;;;;;;3.28;98.19;102280.69;5056084;28;20025;-52
2022/03/16 06:45:21;;;;;;;33.03;20.70;;;;;;;3.41;97.66;102285.22;5055726;28;20044;-52
2022/03/16 06:47:47;;;;;;;31.08;18.88;;;;;;;3.48;96.83;102283.31;5056060;28;20097;-52
2022/03/16 06:50:13;;;;;;;30.65;19.02;;;;;;;3.54;96.42;102287.88;5055989;28;20032;-51
2022/03/16 06:52:39;;;;;;;31.92;20.05;;;;;;;3.57;96.69;102281.09;5056178;28;20028;-49
2022/03/16 06:55:09;;;;;;;29.77;19.75;;;;;;;3.63;96.97;102273.91;5056020;28;20025;-52
2022/03/16 06:57:34;;;;;;;31.42;20.95;;;;;;;3.70;96.41;102291.94;5055705;28;20385;-52
2022/03/16 07:00:00;;;;;;;29.20;18.27;;;;;;;3.81;95.96;102289.53;5055352;28;20473;-50
2022/03/16 07:02:25;;;;;;;28.80;18.45;;;;;;;3.87;96.32;102283.97;5054320;28;20021;-50
2022/03/16 07:04:50;;;;;;;27.85;17.88;;;;;;;4.00;95.52;102280.31;5055447;28;20484;-50
2022/03/16 07:07:15;;;;;;;29.45;18.27;;;;;;;4.14;95.17;102281.00;5054982;28;20040;-53
2022/03/16 07:09:41;;;;;;;28.50;17.95;;;;;;;4.27;94.55;102271.78;5054858;28;20370;-49
2022/03/16 07:12:07;;;;;;;28.90;17.42;;;;;;;4.38;94.29;102270.19;5055652;28;20507;-52
2022/03/16 07:14:32;;;;;;;26.77;16.85;;;;;;;4.48;93.40;102261.44;5054803;28;20017;-50
2022/03/16 07:16:58;;;;;;;27.42;17.13;;;;;;;4.57;93.13;102271.00;5055431;28;20036;-53
2022/03/16 07:19:23;;;;;;;25.80;17.25;;;;;;;4.68;91.89;102253.75;5054647;28;20025;-50
2022/03/16 07:21:49;;;;;;;27.70;17.83;;;;;;;4.74;92.20;102257.47;5053440;28;20021;-52
2022/03/16 07:24:14;;;;;;;26.55;16.63;;;;;;;4.83;91.62;102247.03;5055387;28;20108;-51
2022/03/16 07:26:39;;;;;;;27.33;16.48;;;;;;;4.89;91.10;102248.00;5055313;28;20021;-53
2022/03/16 07:29:05;;;;;;;27.92;16.88;;;;;;;5.01;90.41;102243.38;5055441;28;20068;-54
2022/03/16 07:31:31;;;;;;;25.33;15.88;;;;;;;5.07;90.21;102245.22;5055282;28;20539;-54
2022/03/16 07:33:56;;;;;;;25.73;15.20;;;;;;;5.12;89.75;102237.09;5037920;28;20029;-52
2022/03/16 07:36:21;;;;;;;26.83;17.45;;;;;;;5.22;88.79;102235.69;5031979;28;20029;-52
2022/03/16 07:38:47;;;;;;;27.00;15.52;;;;;;;5.30;88.75;102238.06;5032050;28;20057;-51
2022/03/16 07:41:12;;;;;;;26.75;16.27;;;;;;;5.35;88.55;102232.72;5032036;28;20033;-51
2022/03/16 07:43:38;;;;;;;26.27;16.10;;;;;;;5.41;88.25;102236.44;5046951;28;20036;-51
2022/03/16 07:46:03;;;;;;;24.52;14.88;;;;;;;5.46;87.96;102226.44;5032863;28;20041;-52
2022/03/16 07:48:29;;;;;;;26.30;16.13;;;;;;;5.53;87.42;102241.94;5033179;28;20359;-50
2022/03/16 07:50:55;;;;;;;26.30;16.63;;;;;;;5.65;87.15;102236.44;5032742;28;20026;-53
2022/03/16 07:53:20;;;;;;;26.00;15.65;;;;;;;5.73;86.69;102222.34;5032933;28;20026;-49
2022/03/16 07:55:45;;;;;;;25.92;15.82;;;;;;;5.77;86.37;102224.38;5032831;28;20029;-50
2022/03/16 07:58:11;;;;;;;25.17;16.40;;;;;;;5.88;86.18;102227.34;5032765;28;20036;-51
2022/03/16 08:00:37;;;;;;;26.67;16.55;;;;;;;5.96;85.08;102226.97;5032847;28;20029;-50
2022/03/16 08:03:03;;;;;;;24.85;15.75;;;;;;;6.05;85.02;102230.25;5032682;28;20056;-53
2022/03/16 08:05:29;;;;;;;26.20;16.73;;;;;;;6.16;84.49;102226.63;5048859;28;20032;-50
2022/03/16 08:07:54;;;;;;;26.45;16.38;;;;;;;6.22;84.09;102224.84;5052423;28;20043;-52
2022/03/16 08:10:21;;;;;;;26.50;16.85;;;;;;;6.30;83.17;102232.69;5046547;28;20432;-54
2022/03/16 08:12:46;;;;;;;26.33;16.58;;;;;;;6.38;84.05;102213.06;5047256;28;20490;-50
2022/03/16 08:15:13;;;;;;;25.38;16.17;;;;;;;6.50;82.93;102221.28;5032041;28;20028;-53
2022/03/16 08:17:38;;;;;;;25.25;16.70;;;;;;;6.56;82.58;102217.53;5032221;28;20064;-51
2022/03/16 08:20:04;;;;;;;25.92;16.23;;;;;;;6.65;82.45;102228.97;5031992;28;20056;-52
2022/03/16 08:22:34;;;;;;;26.70;16.85;;;;;;;6.74;82.03;102237.69;5031777;28;20030;-50
2022/03/16 08:25:03;;;;;;;26.35;17.50;;;;;;;6.85;81.80;102246.97;5031865;28;20087;-53
2022/03/16 08:27:28;;;;;;;25.27;16.30;;;;;;;6.97;81.38;102235.88;5032212;28;20032;-52
2022/03/16 08:29:54;;;;;;;25.67;16.08;;;;;;;7.09;80.63;102235.81;5031778;28;20026;-53
2022/03/16 08:32:20;;;;;;;26.27;16.35;;;;;;;7.14;80.26;102224.91;5031486;28;20032;-51
2022/03/16 08:34:46;;;;;;;27.25;16.48;;;;;;;7.19;80.37;102241.50;5045405;28;20033;-52
2022/03/16 08:37:12;;;;;;;26.58;16.67;;;;;;;7.23;79.12;102231.69;5051572;28;20401;-51
2022/03/16 08:39:41;;;;;;;27.42;16.52;;;;;;;7.27;79.79;102227.34;5051498;28;20028;-51
2022/03/16 08:42:08;;;;;;;26.20;16.30;;;;;;;7.30;78.94;102226.81;5051479;28;20036;-52
2022/03/16 08:44:34;;;;;;;25.63;17.42;;;;;;;7.39;78.94;102226.41;5051716;28;20033;-50
2022/03/16 08:46:59;;;;;;;27.80;16.75;;;;;;;7.49;78.81;102218.31;5051596;28;20496;-50
2022/03/16 08:49:25;;;;;;;24.55;16.08;;;;;;;7.56;77.28;102215.41;5051356;28;20060;-51
2022/03/16 08:51:50;;;;;;;27.95;17.17;;;;;;;7.63;77.83;102214.13;5051460;28;20060;-53
2022/03/16 08:54:17;;;;;;;29.75;17.13;;;;;;;7.72;76.85;102221.97;5051185;28;20059;-52
2022/03/16 08:56:43;;;;;;;26.88;17.27;;;;;;;7.77;76.14;102222.88;5051035;28;20420;-54
2022/03/16 08:59:08;;;;;;;25.15;16.40;;;;;;;7.86;75.81;102227.97;5051368;28;20091;-52
2022/03/16 09:01:33;;;;;;;28.33;17.70;;;;;;;7.90;76.07;102224.44;5050866;28;20475;-52
2022/03/16 09:03:58;;;;;;;26.42;17.48;;;;;;;7.99;75.29;102224.81;5051205;28;20033;-51
2022/03/16 09:06:24;;;;;;;27.05;17.05;;;;;;;8.06;74.57;102227.41;5051044;28;20028;-51
2022/03/16 09:08:49;;;;;;;26.30;17.13;;;;;;;8.08;74.26;102223.28;5051502;28;20025;-52
2022/03/16 09:11:14;;;;;;;26.20;17.42;;;;;;;8.14;74.70;102228.88;5048806;28;20412;-51
2022/03/16 09:13:40;;;;;;;26.45;16.75;;;;;;;8.20;74.28;102230.59;5050846;28;20055;-53
2022/03/16 09:16:06;;;;;;;25.92;16.80;;;;;;;8.29;74.11;102223.56;5050918;28;20099;-54
2022/03/16 09:18:32;;;;;;;27.10;17.10;;;;;;;8.40;72.84;102222.59;5050197;28;20044;-54
2022/03/16 09:20:59;;;;;;;28.05;18.05;;;;;;;8.49;73.27;102222.16;5051200;28;20021;-53
2022/03/16 09:23:24;;;;;;;24.95;16.23;;;;;;;8.60;72.34;102225.91;5040631;28;20094;-51
2022/03/16 09:25:49;;;;;;;25.92;17.42;;;;;;;8.66;72.16;102214.63;5050632;28;20556;-54
2022/03/16 09:28:14;;;;;;;26.45;17.15;;;;;;;8.76;71.92;102211.16;5050401;28;20032;-52
2022/03/16 09:30:40;;;;;;;27.77;18.33;;;;;;;8.81;71.33;102213.97;5050349;28;20037;-53
2022/03/16 09:33:06;;;;;;;27.40;17.77;;;;;;;8.93;70.69;102215.72;5050695;28;20075;-57
2022/03/16 09:35:33;;;;;;;26.13;17.33;;;;;;;8.98;70.51;102215.75;5050710;28;20037;-52
2022/03/16 09:37:59;;;;;;;26.88;18.20;;;;;;;9.07;70.55;102214.19;5050467;28;20036;-53
2022/03/16 09:40:25;;;;;;;27.13;18.10;;;;;;;9.17;70.70;102217.03;5050826;28;20029;-54
2022/03/16 09:42:52;;;;;;;27.40;18.63;;;;;;;9.22;69.88;102210.72;5050214;28;20112;-51
2022/03/16 09:45:20;;;;;;;27.13;18.20;;;;;;;9.25;69.71;102199.16;5050458;28;20493;-54
2022/03/16 09:47:46;;;;;;;27.75;18.25;;;;;;;9.36;69.84;102211.97;5050245;28;20033;-52
2022/03/16 09:50:12;;;;;;;26.58;18.52;;;;;;;9.42;69.08;102203.72;5050259;28;20037;-50
2022/03/16 09:52:40;;;;;;;27.48;17.83;;;;;;;9.42;68.46;102212.84;5050734;28;20058;-51
2022/03/16 09:55:06;;;;;;;27.30;18.55;;;;;;;9.44;68.91;102216.19;5044715;28;20037;-53
2022/03/16 09:57:32;;;;;;;27.98;18.42;;;;;;;9.49;68.39;102210.69;5041063;28;20026;-52
2022/03/16 09:59:57;;;;;;;26.55;18.10;;;;;;;9.53;68.50;102216.50;5040620;28;20040;-52
2022/03/16 10:02:22;;;;;;;27.52;19.10;;;;;;;9.52;68.12;102210.16;5034422;28;20393;-50
2022/03/16 10:04:47;;;;;;;27.50;19.02;;;;;;;9.57;68.53;102212.13;5036865;28;20087;-52
2022/03/16 10:07:13;;;;;;;28.17;19.35;;;;;;;9.63;68.24;102199.19;5039031;28;20060;-53
2022/03/16 10:15:18;;;;;;;28.77;19.85;;;;;;;9.79;67.72;102203.69;5045120;28;20076;-53
2022/03/16 10:17:47;;;;;;;28.85;19.38;;;;;;;9.86;68.62;102194.31;5043574;28;20072;-52
2022/03/16 10:20:31;;;;;;;28.85;19.35;;;;;;;9.92;68.00;102193.25;5042449;28;20580;-49
2022/03/16 10:22:57;;;;;;;29.80;18.63;;;;;;;10.04;67.67;102191.09;5042629;28;20143;-53
2022/03/16 10:25:23;;;;;;;28.02;19.05;;;;;;;10.12;67.21;102186.97;5044063;28;20264;-54
2022/03/16 10:27:48;;;;;;;28.52;18.20;;;;;;;10.22;67.29;102198.09;5044181;28;20398;-53
2022/03/16 10:30:14;;;;;;;29.02;19.02;;;;;;;10.38;67.36;102201.78;5042423;28;20026;-52
2022/03/16 10:32:40;;;;;;;27.95;18.50;;;;;;;10.53;66.71;102197.38;5043895;28;20428;-53
2022/03/16 10:35:06;;;;;;;26.50;18.40;;;;;;;10.61;65.51;102200.47;5033570;28;20036;-53
2022/03/16 10:37:35;;;;;;;25.80;18.48;;;;;;;10.59;65.45;102182.44;5038214;28;20029;-54
2022/03/16 10:40:00;;;;;;;27.60;18.48;;;;;;;10.69;65.80;102188.00;5053620;28;20548;-53
2022/03/16 10:48:35;;;;;;;28.15;19.48;;;;;;;10.80;66.53;102185.25;5053935;28;20060;-52
2022/03/16 10:51:05;;;;;;;26.40;18.63;;;;;;;10.86;65.02;102186.94;5031777;28;20489;-53
2022/03/16 10:53:31;;;;;;;28.15;19.20;;;;;;;10.92;64.88;102189.41;5042346;28;20026;-54
2022/03/16 10:56:01;;;;;;;26.90;18.30;;;;;;;11.01;64.78;102175.03;5040039;28;20036;-53
2022/03/16 10:58:27;;;;;;;26.80;18.85;;;;;;;11.11;64.51;102161.19;5038734;28;20037;-53
2022/03/16 11:00:53;;;;;;;28.95;18.90;;;;;;;11.20;64.32;102164.22;5033448;28;20029;-53
2022/03/16 11:03:22;;;;;;;27.30;19.48;;;;;;;11.24;63.64;102159.81;5033337;28;20033;-52
2022/03/16 11:05:48;;;;;;;27.98;19.17;;;;;;;11.33;64.55;102155.38;5033420;28;20108;-53
2022/03/16 11:08:14;;;;;;;28.52;19.25;;;;;;;11.48;64.73;102148.13;5032757;28;20051;-50
2022/03/16 11:10:42;;;;;;;28.35;19.42;;;;;;;11.61;63.58;102150.31;5031012;28;20512;-52
2022/03/16 11:15:54;;;;;;;27.75;19.65;;;;;;;11.71;62.31;102155.00;5032122;28;20435;-53
2022/03/16 11:18:20;;;;;;;27.10;18.20;;;;;;;11.77;63.18;102150.25;5033097;28;20457;-51
2022/03/16 11:20:58;;;;;;;26.45;17.48;;;;;;;11.86;63.58;102146.59;5032529;28;20040;-51
2022/03/16 11:26:34;;;;;;;30.10;19.08;;;;;;;11.89;62.50;102152.72;5032852;28;20437;-52